createdAt,value
2023-09-23T00:02:17.073Z,99206.84
2023-09-23T00:05:19.068Z,99211.16
2023-09-23T00:08:23.348Z,99207.19
2023-09-23T00:11:25.433Z,99207.97
2023-09-23T00:14:27.355Z,99213.03
2023-09-23T00:17:30.134Z,99219.72
2023-09-23T00:20:32.395Z,99210.22
2023-09-23T00:23:36.333Z,99203.22
2023-09-23T00:26:38.276Z,99203.31
2023-09-23T00:29:40.234Z,99204.28
2023-09-23T00:32:43.517Z,99206.03
2023-09-23T00:35:46.334Z,99209.13
2023-09-23T00:38:50.266Z,99210.66
2023-09-23T00:41:53.194Z,99217.72
2023-09-23T00:44:55.073Z,99218.53
2023-09-23T00:47:58.233Z,99221.19
2023-09-23T00:51:01.207Z,99218.50
2023-09-23T00:54:07.550Z,99208.09
2023-09-23T00:57:09.558Z,99221.47
2023-09-23T01:00:24.738Z,99214.22
2023-09-23T01:03:28.550Z,99212.16
2023-09-23T01:06:30.843Z,99204.06
2023-09-23T01:09:34.739Z,99207.44
2023-09-23T01:12:36.793Z,99198.31
2023-09-23T01:15:41.948Z,99203.75
2023-09-23T01:18:48.703Z,99212.75
2023-09-23T01:21:51.004Z,99221.28
2023-09-23T01:24:54.289Z,99219.03
2023-09-23T01:27:56.898Z,99204.41
2023-09-23T01:30:59.309Z,99210.16
2023-09-23T01:34:02.638Z,99216.94
2023-09-23T01:37:04.526Z,99237.53
2023-09-23T01:40:09.972Z,99237.66
2023-09-23T01:43:13.087Z,99238.94
2023-09-23T01:46:15.065Z,99231.47
2023-09-23T01:49:17.728Z,99234.38
2023-09-23T01:52:19.658Z,99234.97
2023-09-23T01:55:23.106Z,99239.81
2023-09-23T01:58:25.874Z,99246.72
2023-09-23T02:01:28.069Z,99253.38
2023-09-23T02:04:31.172Z,99256.31
2023-09-23T02:07:33.092Z,99257.72
2023-09-23T02:10:36.426Z,99261.53
2023-09-23T02:13:42.090Z,99270.25
2023-09-23T02:16:44.228Z,99269.44
2023-09-23T02:19:46.814Z,99282.78
2023-09-23T02:22:50.180Z,99265.09
2023-09-23T02:25:54.128Z,99257.41
2023-09-23T02:28:56.146Z,99259.97
2023-09-23T02:31:58.344Z,99267.09
2023-09-23T02:35:00.616Z,99274.59
2023-09-23T02:38:02.713Z,99278.34
2023-09-23T02:41:06.684Z,99261.47
2023-09-23T02:44:08.966Z,99268.16
2023-09-23T02:47:11.665Z,99279.72
2023-09-23T02:50:15.241Z,99279.97
2023-09-23T02:53:18.771Z,99299.63
2023-09-23T02:56:22.164Z,99301.69
2023-09-23T02:59:27.724Z,99309.88
2023-09-23T03:02:32.321Z,99305.09
2023-09-23T03:05:40.134Z,99300.63
2023-09-23T03:08:48.864Z,99291.88
2023-09-23T03:11:56.828Z,99290.19
2023-09-23T03:15:01.168Z,99297.75
2023-09-23T03:18:04.009Z,99294.47
2023-09-23T03:21:10.137Z,99298.25
2023-09-23T03:24:12.526Z,99295.97
2023-09-23T03:27:16.322Z,99294.03
2023-09-23T03:30:18.860Z,99278.84
2023-09-23T03:33:22.637Z,99280.66
2023-09-23T03:36:26.702Z,99274.31
2023-09-23T03:39:29.836Z,99269.31
2023-09-23T03:42:33.830Z,99274.72
2023-09-23T03:45:36.291Z,99275.78
2023-09-23T03:48:38.873Z,99277.31
2023-09-23T03:51:40.881Z,99277.53
2023-09-23T03:54:42.744Z,99283.16
2023-09-23T03:57:47.753Z,99286.91
2023-09-23T04:00:50.688Z,99301.78
2023-09-23T04:03:53.695Z,99304.38
2023-09-23T04:06:56.842Z,99293.50
2023-09-23T04:13:02.749Z,99302.81
2023-09-23T04:16:06.798Z,99313.28
2023-09-23T04:19:08.981Z,99316.94
2023-09-23T04:22:12.427Z,99307.66
2023-09-23T04:25:17.018Z,99322.19
2023-09-23T04:28:20.791Z,99320.78
2023-09-23T04:31:25.556Z,99307.06
2023-09-23T04:34:27.538Z,99314.59
2023-09-23T04:37:29.339Z,99310.34
2023-09-23T04:40:31.491Z,99307.69
2023-09-23T04:43:34.850Z,99309.31
2023-09-23T04:46:37.177Z,99310.28
2023-09-23T04:49:40.233Z,99325.81
2023-09-23T04:52:43.912Z,99341.97
2023-09-23T04:55:48.756Z,99337.66
2023-09-23T04:58:53.520Z,99316.09
2023-09-23T05:01:55.433Z,99316.91
2023-09-23T05:04:57.524Z,99341.41
2023-09-23T05:08:00.526Z,99339.53
2023-09-23T05:11:03.567Z,99336.59
2023-09-23T05:14:07.744Z,99351.25
2023-09-23T05:17:11.476Z,99373.41
2023-09-23T05:20:15.662Z,99377.38
2023-09-23T05:23:18.390Z,99384.41
2023-09-23T05:26:20.616Z,99389.56
2023-09-23T05:29:24.704Z,99383.34
2023-09-23T05:32:26.771Z,99399.50
2023-09-23T05:35:29.255Z,99405.38
2023-09-23T05:38:31.355Z,99418.59
2023-09-23T05:41:33.335Z,99411.34
2023-09-23T05:44:37.239Z,99415.56
2023-09-23T05:47:39.207Z,99433.78
2023-09-23T05:50:42.193Z,99437.31
2023-09-23T05:53:44.280Z,99442.31
2023-09-23T05:56:46.164Z,99454.13
2023-09-23T05:59:49.548Z,99462.44
2023-09-23T06:02:51.805Z,99479.88
2023-09-23T06:05:54.098Z,99484.31
2023-09-23T06:08:57.831Z,99480.88
2023-09-23T06:12:00.087Z,99490.56
2023-09-23T06:15:05.238Z,99478.72
2023-09-23T06:18:08.276Z,99489.41
2023-09-23T06:21:10.804Z,99474.56
2023-09-23T06:24:12.762Z,99473.22
2023-09-23T06:27:15.197Z,99470.06
2023-09-23T06:30:19.418Z,99503.69
2023-09-23T06:33:23.062Z,99507.69
2023-09-23T06:36:24.833Z,99512.31
2023-09-23T06:39:27.109Z,99519.81
2023-09-23T06:42:28.969Z,99551.09
2023-09-23T06:45:32.242Z,99567.88
2023-09-23T06:48:34.898Z,99576.75
2023-09-23T06:51:36.802Z,99589.16
2023-09-23T06:54:39.299Z,99587.59
2023-09-23T06:57:41.237Z,99624.69
2023-09-23T07:00:45.484Z,99619.75
2023-09-23T07:03:47.993Z,99615.66
2023-09-23T07:06:50.175Z,99611.00
2023-09-23T07:09:53.052Z,99626.69
2023-09-23T07:12:55.357Z,99622.34
2023-09-23T07:15:59.366Z,99627.13
2023-09-23T07:19:04.449Z,99628.41
2023-09-23T07:22:06.489Z,99655.63
2023-09-23T07:25:09.072Z,99641.19
2023-09-23T07:28:11.323Z,99648.41
2023-09-23T07:31:15.308Z,99643.06
2023-09-23T07:34:17.977Z,99630.66
2023-09-23T07:37:19.981Z,99650.88
2023-09-23T07:40:21.861Z,99655.03
2023-09-23T07:43:24.024Z,99677.91
2023-09-23T07:46:27.324Z,99674.41
2023-09-23T07:49:29.906Z,99672.75
2023-09-23T07:52:35.801Z,99669.03
2023-09-23T07:55:38.562Z,99656.25
2023-09-23T07:58:40.568Z,99647.16
2023-09-23T08:01:44.372Z,99634.00
2023-09-23T08:04:46.482Z,99602.66
2023-09-23T08:12:06.140Z,99555.41
2023-09-23T08:15:10.185Z,99526.75
2023-09-23T08:18:14.114Z,99526.91
2023-09-23T08:21:16.913Z,99489.41
2023-09-23T08:24:18.857Z,99473.88
2023-09-23T08:27:20.719Z,99496.56
2023-09-23T08:30:23.330Z,99489.75
2023-09-23T08:33:29.116Z,99526.41
2023-09-23T08:36:31.222Z,99530.34
2023-09-23T08:39:33.034Z,99538.78
2023-09-23T08:42:35.918Z,99539.16
2023-09-23T08:45:41.613Z,99544.97
2023-09-23T08:48:45.499Z,99544.69
2023-09-23T08:51:47.626Z,99548.03
2023-09-23T08:54:51.234Z,99539.75
2023-09-23T08:57:55.504Z,99540.38
2023-09-23T09:00:57.411Z,99534.56
2023-09-23T09:04:00.681Z,99550.66
2023-09-23T09:07:02.696Z,99552.97
2023-09-23T09:10:06.084Z,99578.81
2023-09-23T09:13:08.743Z,99595.88
2023-09-23T09:16:10.689Z,99609.53
2023-09-23T09:19:14.158Z,99610.94
2023-09-23T09:22:17.950Z,99612.03
2023-09-23T09:25:22.293Z,99619.13
2023-09-23T09:28:24.729Z,99618.28
2023-09-23T09:31:33.984Z,99636.63
2023-09-23T09:34:44.462Z,99632.47
2023-09-23T09:37:49.255Z,99646.72
2023-09-23T09:40:53.076Z,99627.69
2023-09-23T09:43:55.327Z,99635.50
2023-09-23T09:46:58.428Z,99634.75
2023-09-23T09:50:04.863Z,99629.47
2023-09-23T09:53:09.964Z,99626.38
2023-09-23T09:56:13.005Z,99632.69
2023-09-23T09:59:24.203Z,99623.88
2023-09-23T10:02:28.318Z,99619.56
2023-09-23T10:05:36.200Z,99626.31
2023-09-23T10:08:39.885Z,99614.69
2023-09-23T10:11:42.566Z,99613.56
2023-09-23T10:14:53.924Z,99609.25
2023-09-23T10:17:58.609Z,99614.59
2023-09-23T10:21:03.506Z,99611.34
2023-09-23T10:24:09.538Z,99617.16
2023-09-23T10:27:11.845Z,99632.50
2023-09-23T10:30:23.436Z,99641.09
2023-09-23T10:33:27.489Z,99626.31
2023-09-23T10:36:30.756Z,99637.56
2023-09-23T10:39:33.899Z,99635.22
2023-09-23T10:42:36.083Z,99614.34
2023-09-23T10:45:38.250Z,99630.72
2023-09-23T10:48:41.521Z,99628.53
2023-09-23T10:51:45.940Z,99623.25
2023-09-23T10:54:49.012Z,99633.69
2023-09-23T10:57:52.359Z,99636.41
2023-09-23T11:00:56.881Z,99648.06
2023-09-23T11:03:59.757Z,99649.88
2023-09-23T11:07:03.969Z,99644.09
2023-09-23T11:10:07.093Z,99658.44
2023-09-23T11:13:11.548Z,99667.31
2023-09-23T11:16:13.622Z,99676.53
2023-09-23T11:19:18.648Z,99678.81
2023-09-23T11:22:25.611Z,99680.75
2023-09-23T11:25:28.602Z,99691.56
2023-09-23T11:28:31.248Z,99706.69
2023-09-23T11:31:33.500Z,99699.63
2023-09-23T11:34:37.028Z,99686.78
2023-09-23T11:37:40.337Z,99689.69
2023-09-23T11:40:43.087Z,99690.44
2023-09-23T11:43:45.759Z,99681.94
2023-09-23T11:46:48.607Z,99683.78
2023-09-23T11:49:52.265Z,99677.88
2023-09-23T11:52:55.625Z,99683.66
2023-09-23T11:55:57.537Z,99687.00
2023-09-23T11:59:08.245Z,99696.28
2023-09-23T12:02:12.269Z,99715.22
2023-09-23T12:05:14.476Z,99731.19
2023-09-23T12:08:17.959Z,99719.81
2023-09-23T12:11:22.757Z,99721.47
2023-09-23T12:14:25.262Z,99728.88
2023-09-23T12:17:27.382Z,99723.91
2023-09-23T12:20:30.007Z,99734.41
2023-09-23T12:23:38.342Z,99743.44
2023-09-23T12:26:40.323Z,99755.44
2023-09-23T12:29:42.673Z,99753.13
2023-09-23T12:32:46.015Z,99746.38
2023-09-23T12:35:48.448Z,99758.94
2023-09-23T12:38:51.832Z,99767.13
2023-09-23T12:41:53.766Z,99770.44
2023-09-23T12:44:55.610Z,99770.88
2023-09-23T12:47:58.362Z,99762.16
2023-09-23T12:51:01.267Z,99773.28
2023-09-23T12:54:04.904Z,99763.81
2023-09-23T12:57:06.755Z,99750.63
2023-09-23T13:00:10.133Z,99761.13
2023-09-23T13:03:12.522Z,99782.75
2023-09-23T13:06:15.162Z,99783.19
2023-09-23T13:09:19.655Z,99768.34
2023-09-23T13:12:22.531Z,99776.13
2023-09-23T13:15:24.861Z,99787.44
2023-09-23T13:18:27.093Z,99789.00
2023-09-23T13:21:29.368Z,99795.34
2023-09-23T13:24:34.298Z,99776.63
2023-09-23T13:27:37.456Z,99780.56
2023-09-23T13:30:39.937Z,99770.03
2023-09-23T13:33:42.855Z,99768.56
2023-09-23T13:36:45.165Z,99771.66
2023-09-23T13:39:49.417Z,99775.31
2023-09-23T13:42:52.123Z,99766.19
2023-09-23T13:45:54.958Z,99760.09
2023-09-23T13:48:57.408Z,99772.16
2023-09-23T13:51:59.541Z,99782.22
2023-09-23T13:55:06.210Z,99781.22
2023-09-23T13:58:08.631Z,99787.47
2023-09-23T14:01:12.297Z,99796.41
2023-09-23T14:04:15.295Z,99783.72
2023-09-23T14:07:18.025Z,99802.44
2023-09-23T14:10:22.739Z,99803.88
2023-09-23T14:13:25.375Z,99801.81
2023-09-23T14:16:27.807Z,99799.94
2023-09-23T14:19:30.519Z,99800.16
2023-09-23T14:22:33.831Z,99796.63
2023-09-23T14:25:38.441Z,99790.28
2023-09-23T14:28:43.974Z,99800.69
2023-09-23T14:31:46.771Z,99787.00
2023-09-23T14:34:48.972Z,99774.84
2023-09-23T14:37:51.678Z,99767.63
2023-09-23T14:40:55.366Z,99784.16
2023-09-23T14:43:57.637Z,99784.81
2023-09-23T14:47:00.138Z,99761.13
2023-09-23T14:50:03.364Z,99775.94
2023-09-23T14:53:05.993Z,99766.66
2023-09-23T14:56:09.859Z,99769.16
2023-09-23T14:59:12.153Z,99774.09
2023-09-23T15:02:14.333Z,99772.09
2023-09-23T15:05:18.408Z,99776.78
2023-09-23T15:08:20.833Z,99777.91
2023-09-23T15:11:27.385Z,99785.16
2023-09-23T15:14:30.548Z,99786.00
2023-09-23T15:17:33.068Z,99773.91
2023-09-23T15:20:38.666Z,99765.63
2023-09-23T15:23:42.468Z,99760.00
2023-09-23T15:26:48.537Z,99769.03
2023-09-23T15:29:51.273Z,99761.84
2023-09-23T15:32:54.165Z,99761.22
2023-09-23T15:35:57.242Z,99769.19
2023-09-23T15:39:00.552Z,99771.25
2023-09-23T15:42:04.964Z,99786.28
2023-09-23T15:45:08.464Z,99784.19
2023-09-23T15:48:11.001Z,99792.41
2023-09-23T15:51:20.990Z,99794.88
2023-09-23T15:54:23.486Z,99794.63
2023-09-23T15:57:27.205Z,99806.34
2023-09-23T16:00:31.070Z,99805.81
2023-09-23T16:03:33.589Z,99806.72
2023-09-23T16:06:36.882Z,99808.09
2023-09-23T16:09:39.029Z,99805.81
2023-09-23T16:12:43.153Z,99801.91
2023-09-23T16:15:46.290Z,99799.44
2023-09-23T16:18:48.856Z,99795.81
2023-09-23T16:21:52.881Z,99783.78
2023-09-23T16:24:55.503Z,99794.72
2023-09-23T16:28:00.706Z,99794.25
2023-09-23T16:31:03.245Z,99804.50
2023-09-23T16:34:06.160Z,99807.63
2023-09-23T16:37:09.186Z,99810.28
2023-09-23T16:40:13.045Z,99815.63
2023-09-23T16:43:16.544Z,99819.53
2023-09-23T16:46:18.857Z,99817.88
2023-09-23T16:49:21.530Z,99823.78
2023-09-23T16:52:24.767Z,99831.63
2023-09-23T16:55:28.896Z,99834.81
2023-09-23T16:58:33.404Z,99835.66
2023-09-23T17:01:36.858Z,99844.09
2023-09-23T17:04:43.372Z,99857.03
2023-09-23T17:07:46.122Z,99860.16
2023-09-23T17:10:49.745Z,99876.63
2023-09-23T17:13:53.851Z,99887.72
2023-09-23T17:16:57.105Z,99887.34
2023-09-23T17:19:59.836Z,99896.97
2023-09-23T17:23:03.985Z,99912.88
2023-09-23T17:26:06.885Z,99913.25
2023-09-23T17:29:11.555Z,99922.25
2023-09-23T17:32:13.914Z,99917.16
2023-09-23T17:35:18.772Z,99906.91
2023-09-23T17:38:21.560Z,99897.34
2023-09-23T17:41:24.011Z,99894.06
2023-09-23T17:44:28.099Z,99901.56
2023-09-23T17:47:32.129Z,99910.66
2023-09-23T17:50:37.411Z,99897.69
2023-09-23T17:53:41.042Z,99889.22
2023-09-23T17:56:43.642Z,99871.13
2023-09-23T17:59:49.723Z,99863.31
2023-09-23T18:02:53.603Z,99860.34
2023-09-23T18:05:57.610Z,99859.28
2023-09-23T18:09:01.450Z,99864.81
2023-09-23T18:12:07.089Z,99855.69
2023-09-23T18:15:14.495Z,99853.22
2023-09-23T18:18:18.323Z,99849.34
2023-09-23T18:21:22.954Z,99844.91
2023-09-23T18:24:25.940Z,99843.44
2023-09-23T18:27:31.481Z,99822.16
2023-09-23T18:30:35.953Z,99817.22
2023-09-23T18:33:41.269Z,99827.16
2023-09-23T18:36:43.724Z,99827.63
2023-09-23T18:39:46.800Z,99820.16
2023-09-23T18:42:50.685Z,99812.63
2023-09-23T18:45:58.698Z,99805.25
2023-09-23T18:49:03.111Z,99815.28
2023-09-23T18:52:07.711Z,99809.38
2023-09-23T18:55:12.959Z,99805.25
2023-09-23T18:58:15.944Z,99806.06
2023-09-23T19:01:23.633Z,99818.97
2023-09-23T19:04:30.924Z,99824.69
2023-09-23T19:07:35.070Z,99824.19
2023-09-23T19:10:38.953Z,99826.88
2023-09-23T19:13:43.665Z,99827.69
2023-09-23T19:16:49.897Z,99836.72
2023-09-23T19:19:54.997Z,99839.59
2023-09-23T19:22:57.485Z,99847.97
2023-09-23T19:26:03.657Z,99849.25
2023-09-23T19:29:08.170Z,99858.19
2023-09-23T19:32:15.160Z,99861.88
2023-09-23T19:35:18.895Z,99877.16
2023-09-23T19:38:22.672Z,99878.81
2023-09-23T19:41:26.105Z,99877.16
2023-09-23T19:44:30.204Z,99890.97
2023-09-23T19:47:38.173Z,99887.78
2023-09-23T19:50:44.020Z,99884.81
2023-09-23T19:53:47.651Z,99876.91
2023-09-23T19:56:51.126Z,99870.28
2023-09-23T19:59:53.900Z,99874.94
2023-09-23T20:02:58.154Z,99889.13
2023-09-23T20:06:04.585Z,99879.88
2023-09-23T20:09:07.849Z,99877.53
2023-09-23T20:12:12.231Z,99881.81
2023-09-23T20:15:16.450Z,99874.56
2023-09-23T20:18:20.620Z,99873.59
2023-09-23T20:21:23.724Z,99872.19
2023-09-23T20:24:28.915Z,99878.63
2023-09-23T20:27:34.516Z,99894.44
2023-09-23T20:30:37.796Z,99892.31
2023-09-23T20:33:44.162Z,99892.00
2023-09-23T20:36:46.845Z,99891.34
2023-09-23T20:39:52.537Z,99889.38
2023-09-23T20:42:59.240Z,99880.84
2023-09-23T20:46:02.527Z,99867.28
2023-09-23T20:49:07.386Z,99871.44
2023-09-23T20:52:10.466Z,99873.47
2023-09-23T20:55:14.062Z,99876.53
2023-09-23T20:58:16.348Z,99877.78
2023-09-23T21:01:19.450Z,99880.66
2023-09-23T21:04:22.929Z,99876.13
2023-09-23T21:07:25.093Z,99871.81
2023-09-23T21:10:26.926Z,99861.13
2023-09-23T21:13:28.922Z,99839.91
2023-09-23T21:16:31.745Z,99847.47
2023-09-23T21:19:34.967Z,99839.28
2023-09-23T21:22:37.037Z,99828.94
2023-09-23T21:25:38.846Z,99834.47
2023-09-23T21:28:40.839Z,99833.03
2023-09-23T21:31:42.927Z,99839.19
2023-09-23T21:34:46.237Z,99832.00
2023-09-23T21:37:48.958Z,99843.34
2023-09-23T21:40:50.969Z,99836.34
2023-09-23T21:43:53.041Z,99836.72
2023-09-23T21:46:54.990Z,99839.19
2023-09-23T21:49:59.600Z,99834.47
2023-09-23T21:53:01.478Z,99831.38
2023-09-23T21:56:03.611Z,99831.19
2023-09-23T21:59:06.074Z,99837.75
2023-09-23T22:02:09.510Z,99838.38
2023-09-23T22:05:13.488Z,99838.19
2023-09-23T22:08:15.783Z,99836.72
2023-09-23T22:11:19.174Z,99833.41
2023-09-23T22:14:21.174Z,99834.88
2023-09-23T22:17:27.003Z,99831.97
2023-09-23T22:20:30.580Z,99835.84
2023-09-23T22:23:32.738Z,99834.16
2023-09-23T22:26:36.947Z,99837.84
2023-09-23T22:29:40.261Z,99828.34
2023-09-23T22:32:43.141Z,99826.88
2023-09-23T22:35:48.624Z,99835.34
2023-09-23T22:38:50.957Z,99836.38
2023-09-23T22:41:53.767Z,99830.56
2023-09-23T22:44:55.772Z,99835.72
2023-09-23T22:48:00.606Z,99832.66
2023-09-23T22:51:05.274Z,99832.66
2023-09-23T22:54:07.282Z,99835.53
2023-09-23T22:57:12.011Z,99833.88
2023-09-23T23:00:15.983Z,99850.56
2023-09-23T23:03:20.214Z,99875.44
2023-09-23T23:06:23.795Z,99892.16
2023-09-23T23:09:27.819Z,99909.03
2023-09-23T23:12:30.235Z,99920.91
2023-09-23T23:15:32.879Z,99921.03
2023-09-23T23:18:35.250Z,99923.91
2023-09-23T23:21:38.992Z,99927.22
2023-09-23T23:24:41.540Z,99924.78
2023-09-23T23:27:44.270Z,99919.00
2023-09-23T23:30:46.722Z,99933.06
2023-09-23T23:33:49.030Z,99927.91
2023-09-23T23:36:53.020Z,99931.34
2023-09-23T23:39:54.897Z,99928.03
2023-09-23T23:42:56.764Z,99913.84
2023-09-23T23:46:00.120Z,99901.19
2023-09-23T23:49:02.058Z,99883.47
2023-09-23T23:52:08.285Z,99883.03
2023-09-23T23:55:10.566Z,99886.09
2023-09-23T23:58:14.069Z,99892.66
